Latest Weather Observations for Barimunya

IDW60801

Issued at 10:35 am WST Tuesday 2 September 2014 (issued every 30 minutes, with the page automatically refreshed every 10 minutes)

About weather observations | Map of weather stations | Latest weather observations for WA | Other Formats
Station Details ID: 505053 Name: BARIMUNYA Lat: -22.67 Lon: 119.16 Height: 629.17 m
Data from the previous 72 hours. | See also: Recent months for locations in Western Australia
Date/Time
WST
Temp
°C
App
Temp
°C
Dew
Point
Rel
Hum
%
Delta-T
°C
Wind Press
QNH
hPa
Press
MSL
hPa
Rain
since 9 am
mm
Dir
 
Spd
km/h
Gust
km/h
Spd
kts
Gust
kts
02/10:30am 27.0 24.0 -4.8 12 14.0 E 2 7 1 4 1021.2 1018.4 0.0
02/10:00am 25.1 21.1 -5.2 13 13.0 ESE 7 13 4 7 1021.5 1018.7 0.0
02/09:30am 23.6 19.6 -5.4 14 12.3 S 7 11 4 6 1021.5 1018.7 0.0
02/09:00am 22.4 18.0 -5.5 15 11.7 S 9 13 5 7 1021.5 1018.7 0.0
02/08:30am 22.2 18.6 -4.0 17 11.3 SSW 6 13 3 7 1021.2 1018.4 0.0
02/08:00am 20.0 17.6 -3.0 21 9.9 WSW 0 6 0 3 1020.8 1017.9 0.0
02/07:30am 17.3 14.9 -3.4 24 8.6 CALM 0 0 0 0 1020.3 1017.5 0.0
02/07:00am 12.6 10.2 -2.8 34 6.2 CALM 0 0 0 0 1019.8 1017.0 0.0
02/06:30am 12.0 9.5 -4.2 32 6.3 CALM 0 0 0 0 1019.4 1016.5 0.0
02/06:00am 11.6 9.0 -4.5 32 6.2 CALM 0 0 0 0 1019.5 1016.6 0.0
02/05:30am 13.2 9.3 -4.9 28 7.0 ESE 7 9 4 5 1019.3 1016.4 0.0
02/05:00am 15.2 12.6 -5.2 24 8.0 CALM 0 0 0 0 1018.9 1016.1 0.0
02/04:30am 14.7 12.1 -5.1 25 7.7 CALM 0 0 0 0 1018.7 1015.9 0.0
02/04:00am 15.6 13.0 -5.4 23 8.2 CALM 0 0 0 0 1018.5 1015.7 0.0
02/03:30am 17.0 13.6 -5.5 21 8.9 WSW 4 9 2 5 1018.4 1015.6 0.0
02/03:00am 19.3 15.4 -4.9 19 9.9 W 7 9 4 5 1018.5 1015.7 0.0
02/02:30am 18.2 14.3 -5.1 20 9.5 WNW 7 9 4 5 1018.5 1015.7 0.0
02/02:00am 16.6 13.1 -5.8 21 8.8 NNW 4 7 2 4 1018.6 1015.8 0.0
02/01:30am 17.9 14.4 -6.0 19 9.5 NNW 4 7 2 4 1018.8 1016.0 0.0
02/01:00am 18.6 14.7 -6.9 17 10.0 NNE 6 9 3 5 1018.8 1016.0 0.0
02/12:30am 21.1 15.4 -7.4 14 11.4 NNE 15 17 8 9 1019.1 1016.2 0.0
02/12:00am 21.3 16.0 -7.2 14 11.4 NNE 13 17 7 9 1019.2 1016.3 0.0
 
Date/Time
WST
Temp
°C
App
Temp
°C
Dew
Point
Rel
Hum
%
Delta-T
°C
Wind Press
QNH
hPa
Press
MSL
hPa
Rain
since 9 am
mm
Dir
 
Spd
km/h
Gust
km/h
Spd
kts
Gust
kts
01/11:30pm 22.2 17.6 -8.5 12 12.1 N 9 9 5 5 1019.2 1016.3 0.0
01/11:00pm 22.2 18.1 -8.5 12 12.1 WNW 6 9 3 5 1019.5 1016.6 0.0
01/10:30pm 22.3 18.1 -7.4 13 12.0 N 7 9 4 5 1019.5 1016.6 0.0
01/10:00pm 22.3 17.7 -7.4 13 12.0 N 9 11 5 6 1019.6 1016.7 0.0
01/09:30pm 22.8 18.2 -8.1 12 12.4 N 9 9 5 5 1019.5 1016.6 0.0
01/09:00pm 23.1 18.5 -7.8 12 12.4 N 9 11 5 6 1019.4 1016.5 0.0
01/08:30pm 23.8 18.9 -7.3 12 12.8 N 11 13 6 7 1019.2 1016.3 0.0
01/08:00pm 23.5 18.9 -7.5 12 12.6 N 9 11 5 6 1018.9 1016.1 0.0
01/07:30pm 23.5 18.6 -7.5 12 12.6 N 11 13 6 7 1018.5 1015.7 0.0
01/07:00pm 23.8 20.2 -7.3 12 12.7 N 4 6 2 3 1018.1 1015.2 0.0
01/06:30pm 24.8 20.6 -7.6 11 13.3 N 7 9 4 5 1017.8 1014.9 0.0
01/06:00pm 26.9 22.4 -7.3 10 14.4 N 9 11 5 6 1017.5 1014.6 0.0
01/05:30pm 29.0 24.5 -7.0 9 15.6 NNE 9 17 5 9 1017.2 1014.4 0.0
01/05:00pm 30.0 24.7 -7.8 8 16.2 N 13 20 7 11 1016.9 1014.1 0.0
01/04:30pm 30.4 25.1 -7.5 8 16.4 N 13 19 7 10 1016.8 1013.9 0.0
01/04:00pm 30.6 26.0 -7.4 8 16.5 NW 9 22 5 12 1016.8 1013.9 0.0
01/03:30pm 30.3 25.4 -7.6 8 16.4 NNW 11 19 6 10 1016.7 1013.8 0.0
01/03:00pm 30.6 24.5 -7.4 8 16.5 ENE 17 24 9 13 1016.8 1013.9 0.0
01/02:30pm 30.6 25.3 -7.4 8 16.5 E 13 20 7 11 1016.9 1014.1 0.0
01/02:00pm 30.0 23.9 -7.8 8 16.2 NE 17 26 9 14 1017.4 1014.5 0.0
01/01:30pm 29.4 24.2 -6.7 9 15.7 N 13 24 7 13 1017.7 1014.8 0.0
01/01:00pm 29.1 23.1 -7.0 9 15.6 NE 17 24 9 13 1018.2 1015.3 0.0
01/12:30pm 29.4 24.2 -6.7 9 15.7 E 13 20 7 11 1018.4 1015.6 0.0
01/12:00pm 28.7 22.3 -7.3 9 15.4 ENE 19 28 10 15 1018.8 1016.0 0.0
01/11:30am 28.8 22.7 -7.2 9 15.5 NNW 17 26 9 14 1019.2 1016.3 0.0
01/11:00am 27.4 23.8 -3.4 13 14.0 E 6 11 3 6 1019.5 1016.6 0.0
01/10:30am 27.0 22.2 -2.7 14 13.6 E 13 19 7 10 1019.9 1017.1 0.0
01/10:00am 25.7 20.3 -1.2 17 12.5 ESE 17 24 9 13 1020.1 1017.3 0.0
01/09:30am 24.3 18.3 -1.5 18 11.9 SE 20 26 11 14 1020.0 1017.2 0.0
01/09:00am 23.5 17.5 -1.4 19 11.4 SE 20 26 11 14 1020.0 1017.2 0.0
01/08:30am 22.1 16.3 -1.2 21 10.6 ESE 19 24 10 13 1019.7 1016.9 0.0
01/08:00am 20.2 15.4 -2.2 22 9.8 S 13 17 7 9 1019.4 1016.5 0.0
01/07:30am 18.2 14.8 -0.6 28 8.4 S 7 15 4 8 1019.1 1017.3 0.0
01/07:28am 17.8 14.5 -0.9 28 8.2 S 6 13 3 7 1019.1 1017.3 0.0
01/07:00am 12.6 10.3 -2.4 35 6.1 CALM 0 0 0 0 1018.7 1016.9 0.0
01/06:30am 13.5 11.1 -2.8 32 6.6 CALM 0 0 0 0 1018.3 1016.5 0.0
01/06:00am 13.4 11.0 -3.4 31 6.7 CALM 0 0 0 0 1017.8 1016.0 0.0
01/05:30am 15.0 12.6 -3.3 28 7.5 CALM 0 0 0 0 1017.5 1015.7 0.0
01/05:00am 15.1 10.9 -3.7 27 7.6 S 9 11 5 6 1017.4 1015.5 0.0
01/04:30am 13.8 11.0 -6.9 23 7.7 CALM 0 0 0 0 1017.1 1015.3 0.0
01/04:00am 15.2 11.1 -7.0 21 8.4 WSW 7 9 4 5 1017.2 1015.4 0.0
01/03:30am 16.4 11.5 -7.3 19 9.0 SW 11 15 6 8 1017.4 1015.5 0.0
01/03:00am 16.7 12.2 -7.0 19 9.1 W 9 13 5 7 1017.0 1015.2 0.0
01/02:30am 15.8 11.3 -6.5 21 8.6 W 9 11 5 6 1017.0 1015.2 0.0
01/02:00am 13.9 9.6 -4.8 27 7.3 W 9 13 5 7 1017.0 1015.2 0.0
01/01:30am 15.5 11.6 -6.1 22 8.3 E 6 9 3 5 1017.1 1015.3 0.0
01/01:00am 16.7 13.6 -6.3 20 8.9 NNW 2 6 1 3 1017.2 1015.4 0.0
01/12:30am 18.1 15.3 -7.3 17 9.8 CALM 0 6 0 3 1017.6 1015.8 0.0
01/12:00am 18.5 14.9 -7.0 17 10.0 W 4 7 2 4 1017.8 1016.0 0.0
 
Date/Time
WST
Temp
°C
App
Temp
°C
Dew
Point
Rel
Hum
%
Delta-T
°C
Wind Press
QNH
hPa
Press
MSL
hPa
Rain
since 9 am
mm
Dir
 
Spd
km/h
Gust
km/h
Spd
kts
Gust
kts
31/11:30pm 20.5 16.9 -7.9 14 11.1 W 4 7 2 4 1017.8 1016.0 0.0
31/11:00pm 20.7 17.5 -7.7 14 11.2 N 2 6 1 3 1017.8 1016.0 0.0
31/10:30pm 21.2 16.6 -8.3 13 11.6 N 9 11 5 6 1017.9 1016.1 0.0
31/10:00pm 21.0 16.1 -7.5 14 11.3 N 11 13 6 7 1017.9 1016.1 0.0
31/09:30pm 21.6 16.6 -8.0 13 11.7 N 11 13 6 7 1018.1 1016.3 0.0
31/09:00pm 22.2 16.5 -7.5 13 11.9 N 15 15 8 8 1017.9 1016.1 0.0
31/08:30pm 22.4 17.1 -7.3 13 12.0 N 13 15 7 8 1017.9 1016.1 0.0
31/08:00pm 22.2 16.9 -7.5 13 11.9 N 13 15 7 8 1017.7 1015.9 0.0
31/07:30pm 22.5 17.2 -7.3 13 12.1 N 13 15 7 8 1017.5 1015.7 0.0
31/07:00pm 23.6 18.2 -8.5 11 12.8 NNE 13 13 7 7 1017.0 1015.2 0.0
31/06:30pm 24.5 19.4 -9.1 10 13.4 NNE 11 13 6 7 1016.7 1014.9 0.0
31/06:00pm 26.0 20.9 -9.3 9 14.2 N 11 15 6 8 1016.4 1014.6 0.0
31/05:30pm 28.4 23.7 -9.0 8 15.5 NNW 9 13 5 7 1016.3 1014.5 0.0
31/05:00pm 29.1 24.1 -8.5 8 15.8 N 11 17 6 9 1016.2 1014.4 0.0
31/04:30pm 30.0 25.4 -7.8 8 16.3 N 9 17 5 9 1016.1 1014.3 0.0
31/04:00pm 29.7 24.0 -8.0 8 16.1 NNW 15 22 8 12 1016.0 1014.1 0.0
31/03:30pm 29.4 23.6 -8.2 8 16.0 NNW 15 26 8 14 1016.0 1014.1 0.0
31/03:00pm 29.3 23.0 -10.0 7 16.2 NNW 17 28 9 15 1016.2 1014.4 0.0
31/02:30pm 29.5 24.0 -9.9 7 16.3 N 13 17 7 9 1016.3 1014.5 0.0
31/02:00pm 29.1 23.3 -8.5 8 15.8 N 15 24 8 13 1016.6 1014.8 0.0
31/01:30pm 28.7 23.6 -8.8 8 15.7 NNE 11 24 6 13 1016.9 1015.1 0.0
31/01:00pm 28.5 23.1 -8.9 8 15.6 N 13 20 7 11 1017.5 1015.7 0.0
31/12:30pm 28.2 23.6 -7.6 9 15.2 SSW 9 28 5 15 1017.8 1016.0 0.0
31/12:00pm 28.6 24.4 -7.3 9 15.4 N 7 20 4 11 1018.2 1016.4 0.0
31/11:30am 27.5 23.0 -6.8 10 14.7 ENE 9 20 5 11 1018.7 1016.9 0.0
31/11:00am 26.3 22.3 -7.7 10 14.1 NW 6 17 3 9 1019.2 1017.4 0.0
31/10:30am 26.5 21.8 -5.2 12 13.9 S 11 19 6 10 1019.7 1017.9 0.0
31/10:00am 24.8 19.0 -4.5 14 12.8 SSE 17 22 9 12 1019.9 1018.1 0.0
31/09:30am 24.2 18.5 -4.0 15 12.4 S 17 20 9 11 1019.9 1018.1 0.0
31/09:00am 23.2 17.1 -4.0 16 11.8 SSE 19 24 10 13 1020.0 1018.2 0.0
31/08:30am 22.0 17.0 -4.1 17 11.2 S 13 19 7 10 1019.9 1018.1 0.0
31/08:00am 20.1 15.9 -4.2 19 10.2 SSW 9 13 5 7 1019.7 1017.9 0.0
31/07:30am 17.0 14.4 -4.8 22 8.8 CALM 0 0 0 0 1019.4 1017.6 0.0
31/07:00am 14.2 11.4 -7.2 22 7.9 CALM 0 0 0 0 1018.9 1017.2 0.0
31/06:30am 12.1 9.3 -6.8 26 6.9 CALM 0 0 0 0 1018.6 1016.8 0.0
31/06:00am 12.1 9.3 -6.8 26 6.9 CALM 0 0 0 0 1018.3 1016.5 0.0
31/05:56am 12.8 9.9 -7.8 23 7.4 CALM 0 0 0 0 1018.3 1016.5 0.0
31/05:37am 13.2 9.2 -7.4 23 7.5 W 6 7 3 4 1018.1 1016.3 0.0
31/05:30am 12.7 8.7 -7.3 24 7.3 W 6 7 3 4 1018.0 1016.2 0.0
31/05:00am 13.0 8.9 -7.1 24 7.4 W 7 9 4 5 1017.9 1016.1 0.0
31/04:30am 11.0 8.3 -5.9 30 6.2 CALM 0 0 0 0 1017.7 1015.9 0.0
31/04:00am 13.9 9.8 -6.9 23 7.7 NW 7 9 4 5 1017.5 1015.7 0.0
31/03:30am 12.5 8.6 -7.0 25 7.1 N 6 7 3 4 1017.4 1015.5 0.0
31/03:00am 12.3 9.6 -5.7 28 6.8 CALM 0 0 0 0 1017.4 1015.5 0.0
31/02:30am 12.5 9.8 -6.0 27 6.9 CALM 0 0 0 0 1017.5 1015.7 0.0
31/02:00am 14.3 11.4 -7.7 21 8.1 CALM 0 0 0 0 1017.8 1016.0 0.0
31/01:30am 15.4 12.6 -7.4 20 8.6 CALM 0 0 0 0 1018.1 1016.3 0.0
31/01:00am 16.1 11.1 -8.2 18 9.0 N 11 15 6 8 1018.3 1016.5 0.0
31/12:30am 16.5 11.9 -7.9 18 9.2 N 9 13 5 7 1018.5 1016.7 0.0
31/12:00am 15.8 11.6 -7.7 19 8.8 W 7 9 4 5 1018.6 1016.8 0.0
 
Date/Time
WST
Temp
°C
App
Temp
°C
Dew
Point
Rel
Hum
%
Delta-T
°C
Wind Press
QNH
hPa
Press
MSL
hPa
Rain
since 9 am
mm
Dir
 
Spd
km/h
Gust
km/h
Spd
kts
Gust
kts
30/11:30pm 16.8 12.8 -7.6 18 9.3 WSW 6 7 3 4 1018.7 1016.9 0.0
30/11:00pm 18.8 14.1 -9.2 14 10.5 W 9 11 5 6 1018.8 1017.1 0.0
30/10:30pm 20.3 17.2 -10.0 12 11.4 CALM 0 0 0 0 1019.1 1017.3 0.0
30/10:00pm 20.5 17.5 -9.8 12 11.4 CALM 0 0 0 0 1019.1 1017.3 0.0
30/09:30pm 21.7 16.9 -10.0 11 12.1 N 9 11 5 6 1019.3 1017.5 0.0
30/09:00pm 22.0 16.5 -9.8 11 12.2 N 13 15 7 8 1019.3 1017.5 0.0
30/08:30pm 22.0 16.5 -9.8 11 12.2 NNE 13 15 7 8 1019.3 1017.5 0.0
30/08:00pm 21.3 15.8 -9.2 12 11.7 NNE 13 13 7 7 1019.2 1017.4 0.0
30/07:30pm 21.6 16.5 -9.0 12 11.9 NNE 11 13 6 7 1018.9 1017.2 0.0
30/07:00pm 21.4 16.8 -8.1 13 11.6 NNE 9 11 5 6 1018.7 1016.9 0.0
30/06:30pm 22.7 19.5 -7.1 13 12.1 N 2 7 1 4 1018.6 1016.8 0.0
30/06:00pm 25.9 23.0 -8.0 10 14.0 CALM 0 4 0 2 1018.4 1016.6 0.0
30/05:30pm 28.0 23.7 -9.3 8 15.4 NNW 7 13 4 7 1018.2 1016.4 0.0
30/05:00pm 29.2 25.0 -10.1 7 16.1 WSW 6 15 3 8 1018.0 1016.2 0.0
30/04:30pm 29.6 25.4 -9.8 7 16.3 W 6 11 3 6 1017.9 1016.1 0.0
30/04:00pm 28.8 24.6 -10.4 7 15.9 NW 6 17 3 9 1017.7 1015.9 0.0
30/03:30pm 29.2 23.3 -10.1 7 16.1 NW 15 20 8 11 1017.6 1015.8 0.0
30/03:00pm 29.1 23.6 -10.2 7 16.1 N 13 19 7 10 1017.7 1015.9 0.0
30/02:30pm 28.7 24.5 -10.5 7 15.9 NNE 6 15 3 8 1017.8 1016.0 0.0
30/02:00pm 28.8 24.0 -10.4 7 15.9 N 9 13 5 7 1018.0 1016.2 0.0
30/01:30pm 28.1 23.3 -10.9 7 15.6 N 9 19 5 10 1018.3 1016.5 0.0
30/01:00pm 28.2 23.1 -9.1 8 15.4 NNW 11 20 6 11 1018.8 1017.1 0.0
30/12:30pm 27.5 22.8 -9.7 8 15.1 NNE 9 17 5 9 1019.2 1017.4 0.0
30/12:00pm 27.0 22.2 -10.0 8 14.9 NNE 9 20 5 11 1019.5 1017.7 0.0
30/11:30am 27.1 22.3 -9.9 8 14.9 NW 9 19 5 10 1020.1 1018.3 0.0
30/11:00am 27.3 21.2 -8.3 9 14.8 NE 17 20 9 11 1020.4 1018.7 0.0

Other Formats:

Comma delimited format used in spreadsheet applications
http://www.bom.gov.au/fwo/IDW60801/IDW60801.99313.axf

JavaScript Object Notation format (JSON) in row-major order
http://www.bom.gov.au/fwo/IDW60801/IDW60801.99313.json